sensor_id;sensor_type;location;lat;lon;timestamp;pressure;altitude;pressure_sealevel;temperature;humidity
70555;BME280;58104;52.744;15.242;2023-04-06T00:02:04;101451.96;;;17.77;33.69
70555;BME280;58104;52.744;15.242;2023-04-06T00:04:29;101450.44;;;17.76;33.86
70555;BME280;58104;52.744;15.242;2023-04-06T00:06:55;101450.78;;;17.77;33.92
70555;BME280;58104;52.744;15.242;2023-04-06T00:09:20;101446.05;;;17.79;33.90
70555;BME280;58104;52.744;15.242;2023-04-06T00:11:45;101443.61;;;17.75;33.93
70555;BME280;58104;52.744;15.242;2023-04-06T00:14:11;101443.81;;;17.78;33.93
70555;BME280;58104;52.744;15.242;2023-04-06T00:16:36;101442.45;;;17.77;34.13
70555;BME280;58104;52.744;15.242;2023-04-06T00:19:02;101442.40;;;17.77;34.14
70555;BME280;58104;52.744;15.242;2023-04-06T00:21:27;101448.07;;;17.66;34.14
70555;BME280;58104;52.744;15.242;2023-04-06T00:23:53;101448.74;;;17.65;34.52
70555;BME280;58104;52.744;15.242;2023-04-06T00:26:19;101447.09;;;17.65;34.60
70555;BME280;58104;52.744;15.242;2023-04-06T00:28:44;101448.08;;;17.74;34.38
70555;BME280;58104;52.744;15.242;2023-04-06T00:31:09;101441.60;;;17.70;34.58
70555;BME280;58104;52.744;15.242;2023-04-06T00:33:35;101442.66;;;17.70;34.65
70555;BME280;58104;52.744;15.242;2023-04-06T00:36:00;101443.02;;;17.75;34.59
70555;BME280;58104;52.744;15.242;2023-04-06T00:38:26;101441.60;;;17.76;34.59
70555;BME280;58104;52.744;15.242;2023-04-06T00:40:51;101438.18;;;17.68;34.60
70555;BME280;58104;52.744;15.242;2023-04-06T00:43:17;101437.40;;;17.69;34.57
70555;BME280;58104;52.744;15.242;2023-04-06T00:45:42;101434.33;;;17.71;34.66
70555;BME280;58104;52.744;15.242;2023-04-06T00:48:08;101435.29;;;17.83;34.85
70555;BME280;58104;52.744;15.242;2023-04-06T00:50:34;101434.94;;;17.84;34.82
70555;BME280;58104;52.744;15.242;2023-04-06T00:52:59;101435.12;;;17.86;34.59
70555;BME280;58104;52.744;15.242;2023-04-06T00:55:24;101436.45;;;17.84;34.61
70555;BME280;58104;52.744;15.242;2023-04-06T00:57:49;101434.99;;;17.76;34.79
70555;BME280;58104;52.744;15.242;2023-04-06T01:00:16;101435.75;;;17.84;34.80
70555;BME280;58104;52.744;15.242;2023-04-06T01:02:40;101430.92;;;17.86;34.76
70555;BME280;58104;52.744;15.242;2023-04-06T01:05:06;101432.58;;;17.85;34.84
70555;BME280;58104;52.744;15.242;2023-04-06T01:07:31;101433.75;;;17.83;34.92
70555;BME280;58104;52.744;15.242;2023-04-06T01:09:57;101433.28;;;17.80;34.99
70555;BME280;58104;52.744;15.242;2023-04-06T01:12:22;101432.19;;;17.81;34.81
70555;BME280;58104;52.744;15.242;2023-04-06T01:14:48;101432.62;;;17.81;34.79
70555;BME280;58104;52.744;15.242;2023-04-06T01:17:13;101433.67;;;17.77;34.93
70555;BME280;58104;52.744;15.242;2023-04-06T01:19:39;101426.97;;;17.79;34.96
70555;BME280;58104;52.744;15.242;2023-04-06T01:22:04;101426.21;;;17.78;34.86
70555;BME280;58104;52.744;15.242;2023-04-06T01:24:30;101427.10;;;17.78;34.98
70555;BME280;58104;52.744;15.242;2023-04-06T01:26:56;101426.93;;;17.80;35.05
70555;BME280;58104;52.744;15.242;2023-04-06T01:29:21;101428.02;;;17.81;35.01
70555;BME280;58104;52.744;15.242;2023-04-06T01:31:46;101427.72;;;17.76;35.07
70555;BME280;58104;52.744;15.242;2023-04-06T01:34:11;101426.01;;;17.77;35.08
70555;BME280;58104;52.744;15.242;2023-04-06T01:36:37;101427.20;;;17.80;35.10
70555;BME280;58104;52.744;15.242;2023-04-06T01:39:03;101428.26;;;17.95;35.11
70555;BME280;58104;52.744;15.242;2023-04-06T01:41:28;101424.60;;;17.89;35.15
70555;BME280;58104;52.744;15.242;2023-04-06T01:43:54;101423.79;;;17.85;35.28
70555;BME280;58104;52.744;15.242;2023-04-06T01:46:19;101426.45;;;17.81;35.27
70555;BME280;58104;52.744;15.242;2023-04-06T01:48:44;101427.73;;;17.80;35.31
70555;BME280;58104;52.744;15.242;2023-04-06T01:51:10;101426.73;;;17.78;35.42
70555;BME280;58104;52.744;15.242;2023-04-06T01:53:35;101427.81;;;17.71;35.60
70555;BME280;58104;52.744;15.242;2023-04-06T01:56:00;101428.10;;;17.69;35.66
70555;BME280;58104;52.744;15.242;2023-04-06T01:58:26;101430.15;;;17.83;35.61
70555;BME280;58104;52.744;15.242;2023-04-06T02:00:51;101430.13;;;17.67;35.66
70555;BME280;58104;52.744;15.242;2023-04-06T02:03:17;101428.47;;;17.65;35.66
70555;BME280;58104;52.744;15.242;2023-04-06T02:05:42;101427.42;;;17.69;35.58
70555;BME280;58104;52.744;15.242;2023-04-06T02:08:07;101424.93;;;17.68;35.59
70555;BME280;58104;52.744;15.242;2023-04-06T02:10:32;101424.37;;;17.70;35.47
70555;BME280;58104;52.744;15.242;2023-04-06T02:12:57;101425.13;;;17.72;35.53
70555;BME280;58104;52.744;15.242;2023-04-06T02:15:23;101426.68;;;17.78;35.56
70555;BME280;58104;52.744;15.242;2023-04-06T02:17:48;101426.81;;;17.76;35.64
70555;BME280;58104;52.744;15.242;2023-04-06T02:20:14;101424.74;;;17.61;35.71
70555;BME280;58104;52.744;15.242;2023-04-06T02:22:39;101421.62;;;17.71;35.73
70555;BME280;58104;52.744;15.242;2023-04-06T02:25:05;101421.92;;;17.75;35.53
70555;BME280;58104;52.744;15.242;2023-04-06T02:27:30;101420.38;;;17.78;35.56
70555;BME280;58104;52.744;15.242;2023-04-06T02:29:55;101419.79;;;17.86;35.64
70555;BME280;58104;52.744;15.242;2023-04-06T02:32:20;101416.97;;;17.87;35.66
70555;BME280;58104;52.744;15.242;2023-04-06T02:34:46;101419.23;;;17.93;35.61
70555;BME280;58104;52.744;15.242;2023-04-06T02:37:11;101419.13;;;17.91;35.65
70555;BME280;58104;52.744;15.242;2023-04-06T02:39:37;101419.59;;;17.94;35.62
70555;BME280;58104;52.744;15.242;2023-04-06T02:42:02;101418.35;;;17.92;35.72
70555;BME280;58104;52.744;15.242;2023-04-06T02:44:27;101419.72;;;17.87;35.80
70555;BME280;58104;52.744;15.242;2023-04-06T02:46:53;101420.63;;;17.91;35.75
70555;BME280;58104;52.744;15.242;2023-04-06T02:49:18;101419.76;;;17.89;35.72
70555;BME280;58104;52.744;15.242;2023-04-06T02:51:43;101419.90;;;17.88;35.80
70555;BME280;58104;52.744;15.242;2023-04-06T02:54:09;101420.14;;;17.89;35.81
70555;BME280;58104;52.744;15.242;2023-04-06T02:56:34;101422.05;;;17.89;35.86
70555;BME280;58104;52.744;15.242;2023-04-06T02:58:59;101419.20;;;17.85;35.91
70555;BME280;58104;52.744;15.242;2023-04-06T03:01:26;101419.67;;;17.95;36.03
70555;BME280;58104;52.744;15.242;2023-04-06T03:03:50;101421.83;;;17.98;35.94
70555;BME280;58104;52.744;15.242;2023-04-06T03:06:16;101423.64;;;17.97;35.93
70555;BME280;58104;52.744;15.242;2023-04-06T03:08:41;101423.67;;;17.93;35.97
70555;BME280;58104;52.744;15.242;2023-04-06T03:11:07;101424.02;;;17.91;35.89
70555;BME280;58104;52.744;15.242;2023-04-06T03:13:33;101425.98;;;17.88;35.98
70555;BME280;58104;52.744;15.242;2023-04-06T03:15:58;101423.22;;;17.85;36.06
70555;BME280;58104;52.744;15.242;2023-04-06T03:18:25;101423.74;;;17.81;35.91
70555;BME280;58104;52.744;15.242;2023-04-06T03:20:49;101423.22;;;17.78;36.01
70555;BME280;58104;52.744;15.242;2023-04-06T03:23:14;101423.10;;;17.81;35.92
70555;BME280;58104;52.744;15.242;2023-04-06T03:25:40;101428.59;;;17.82;36.06
70555;BME280;58104;52.744;15.242;2023-04-06T03:28:05;101427.16;;;17.81;35.86
70555;BME280;58104;52.744;15.242;2023-04-06T03:30:31;101426.77;;;17.88;36.01
70555;BME280;58104;52.744;15.242;2023-04-06T03:32:56;101430.10;;;17.83;35.96
70555;BME280;58104;52.744;15.242;2023-04-06T03:35:22;101427.71;;;17.88;35.90
70555;BME280;58104;52.744;15.242;2023-04-06T03:37:47;101427.35;;;17.92;35.87
70555;BME280;58104;52.744;15.242;2023-04-06T03:40:12;101430.44;;;17.93;35.87
70555;BME280;58104;52.744;15.242;2023-04-06T03:42:38;101430.38;;;17.93;35.91
70555;BME280;58104;52.744;15.242;2023-04-06T03:45:04;101432.78;;;17.97;36.16
70555;BME280;58104;52.744;15.242;2023-04-06T03:47:29;101437.68;;;17.98;36.16
70555;BME280;58104;52.744;15.242;2023-04-06T03:49:54;101441.13;;;17.96;36.13
70555;BME280;58104;52.744;15.242;2023-04-06T03:52:20;101445.88;;;17.91;36.22
70555;BME280;58104;52.744;15.242;2023-04-06T03:54:45;101445.53;;;17.84;36.46
70555;BME280;58104;52.744;15.242;2023-04-06T03:57:10;101447.07;;;17.77;36.56
70555;BME280;58104;52.744;15.242;2023-04-06T03:59:35;101446.95;;;17.78;36.50
70555;BME280;58104;52.744;15.242;2023-04-06T04:02:01;101451.94;;;17.78;36.62
70555;BME280;58104;52.744;15.242;2023-04-06T04:04:26;101453.70;;;17.72;36.60
70555;BME280;58104;52.744;15.242;2023-04-06T04:06:51;101455.12;;;17.71;36.68
70555;BME280;58104;52.744;15.242;2023-04-06T04:09:16;101456.93;;;17.76;36.79
70555;BME280;58104;52.744;15.242;2023-04-06T04:11:42;101460.29;;;17.84;36.61
70555;BME280;58104;52.744;15.242;2023-04-06T04:14:07;101463.93;;;17.96;36.73
70555;BME280;58104;52.744;15.242;2023-04-06T04:16:32;101461.59;;;17.95;36.60
70555;BME280;58104;52.744;15.242;2023-04-06T04:18:58;101463.94;;;17.97;36.51
70555;BME280;58104;52.744;15.242;2023-04-06T04:21:23;101464.75;;;17.93;36.71
70555;BME280;58104;52.744;15.242;2023-04-06T04:23:49;101466.98;;;17.90;36.57
70555;BME280;58104;52.744;15.242;2023-04-06T04:26:14;101470.64;;;17.95;36.62
70555;BME280;58104;52.744;15.242;2023-04-06T04:28:39;101471.14;;;17.92;36.62
70555;BME280;58104;52.744;15.242;2023-04-06T04:31:05;101472.37;;;17.90;36.75
70555;BME280;58104;52.744;15.242;2023-04-06T04:33:30;101476.77;;;17.91;36.67
70555;BME280;58104;52.744;15.242;2023-04-06T04:35:56;101475.60;;;17.90;36.69
70555;BME280;58104;52.744;15.242;2023-04-06T04:38:22;101474.26;;;17.92;36.58
70555;BME280;58104;52.744;15.242;2023-04-06T04:40:47;101474.00;;;17.95;36.53
70555;BME280;58104;52.744;15.242;2023-04-06T04:43:13;101474.16;;;17.84;36.67
70555;BME280;58104;52.744;15.242;2023-04-06T04:45:38;101477.80;;;17.87;36.56
70555;BME280;58104;52.744;15.242;2023-04-06T04:48:04;101477.02;;;17.86;36.62
70555;BME280;58104;52.744;15.242;2023-04-06T04:50:29;101480.26;;;17.90;36.68
70555;BME280;58104;52.744;15.242;2023-04-06T04:52:55;101478.52;;;17.98;36.79
70555;BME280;58104;52.744;15.242;2023-04-06T04:55:20;101481.55;;;17.99;36.52
70555;BME280;58104;52.744;15.242;2023-04-06T04:57:46;101480.32;;;17.99;36.79
70555;BME280;58104;52.744;15.242;2023-04-06T05:00:12;101485.17;;;17.91;36.96
70555;BME280;58104;52.744;15.242;2023-04-06T05:02:37;101487.18;;;17.96;36.87
70555;BME280;58104;52.744;15.242;2023-04-06T05:05:03;101485.14;;;18.06;36.77
70555;BME280;58104;52.744;15.242;2023-04-06T05:07:28;101485.37;;;18.03;36.72
70555;BME280;58104;52.744;15.242;2023-04-06T05:09:53;101488.00;;;18.15;36.65
70555;BME280;58104;52.744;15.242;2023-04-06T05:12:19;101484.45;;;18.34;37.28
70555;BME280;58104;52.744;15.242;2023-04-06T05:14:44;101483.92;;;18.38;37.36
70555;BME280;58104;52.744;15.242;2023-04-06T05:17:09;101484.23;;;18.43;36.67
70555;BME280;58104;52.744;15.242;2023-04-06T05:19:35;101483.88;;;18.30;36.83
70555;BME280;58104;52.744;15.242;2023-04-06T05:22:00;101488.57;;;18.40;36.63
70555;BME280;58104;52.744;15.242;2023-04-06T05:24:26;101490.22;;;18.40;36.85
70555;BME280;58104;52.744;15.242;2023-04-06T05:26:51;101488.50;;;18.33;36.78
70555;BME280;58104;52.744;15.242;2023-04-06T05:29:16;101485.85;;;18.52;36.26
70555;BME280;58104;52.744;15.242;2023-04-06T05:31:41;101485.16;;;18.51;36.24
70555;BME280;58104;52.744;15.242;2023-04-06T05:34:07;101485.47;;;18.52;36.18
70555;BME280;58104;52.744;15.242;2023-04-06T05:36:32;101487.85;;;18.10;33.99
70555;BME280;58104;52.744;15.242;2023-04-06T05:38:58;101491.17;;;18.10;33.30
70555;BME280;58104;52.744;15.242;2023-04-06T05:41:24;101491.08;;;17.87;32.51
70555;BME280;58104;52.744;15.242;2023-04-06T05:43:49;101489.55;;;18.00;32.17
70555;BME280;58104;52.744;15.242;2023-04-06T05:46:15;101491.24;;;17.95;31.63
70555;BME280;58104;52.744;15.242;2023-04-06T05:48:40;101489.03;;;17.68;32.11
70555;BME280;58104;52.744;15.242;2023-04-06T05:51:05;101488.15;;;17.60;31.84
70555;BME280;58104;52.744;15.242;2023-04-06T05:53:31;101488.60;;;17.61;32.09
70555;BME280;58104;52.744;15.242;2023-04-06T05:55:57;101486.18;;;17.79;31.94
70555;BME280;58104;52.744;15.242;2023-04-06T05:58:22;101486.54;;;17.65;32.43
70555;BME280;58104;52.744;15.242;2023-04-06T06:00:50;101485.08;;;17.80;31.61
70555;BME280;58104;52.744;15.242;2023-04-06T06:03:13;101487.93;;;17.87;31.49
70555;BME280;58104;52.744;15.242;2023-04-06T06:05:38;101486.39;;;17.80;32.05
70555;BME280;58104;52.744;15.242;2023-04-06T06:08:04;101488.22;;;17.68;31.64
70555;BME280;58104;52.744;15.242;2023-04-06T06:10:30;101488.71;;;17.74;32.27
70555;BME280;58104;52.744;15.242;2023-04-06T06:12:55;101489.98;;;17.84;32.43
70555;BME280;58104;52.744;15.242;2023-04-06T06:15:20;101495.07;;;17.93;32.18
70555;BME280;58104;52.744;15.242;2023-04-06T06:17:46;101499.93;;;17.77;32.04
70555;BME280;58104;52.744;15.242;2023-04-06T06:20:12;101501.89;;;17.97;32.64
70555;BME280;58104;52.744;15.242;2023-04-06T06:22:37;101504.29;;;18.13;32.73
70555;BME280;58104;52.744;15.242;2023-04-06T06:25:02;101501.02;;;18.18;32.27
70555;BME280;58104;52.744;15.242;2023-04-06T06:27:28;101504.44;;;17.74;32.27
70555;BME280;58104;52.744;15.242;2023-04-06T06:29:54;101507.17;;;17.85;31.84
70555;BME280;58104;52.744;15.242;2023-04-06T06:32:19;101510.73;;;17.72;32.06
70555;BME280;58104;52.744;15.242;2023-04-06T06:34:45;101511.10;;;17.92;34.77
70555;BME280;58104;52.744;15.242;2023-04-06T06:37:11;101509.80;;;17.97;34.63
70555;BME280;58104;52.744;15.242;2023-04-06T06:39:36;101511.02;;;18.13;34.62
70555;BME280;58104;52.744;15.242;2023-04-06T06:42:01;101510.97;;;18.21;34.97
70555;BME280;58104;52.744;15.242;2023-04-06T06:44:27;101512.56;;;18.13;35.10
70555;BME280;58104;52.744;15.242;2023-04-06T06:46:52;101515.82;;;18.13;34.73
70555;BME280;58104;52.744;15.242;2023-04-06T06:49:18;101515.19;;;18.22;35.17
70555;BME280;58104;52.744;15.242;2023-04-06T06:51:42;101513.93;;;18.37;34.99
70555;BME280;58104;52.744;15.242;2023-04-06T06:54:08;101513.21;;;18.36;34.74
70555;BME280;58104;52.744;15.242;2023-04-06T06:56:33;101515.66;;;18.34;34.98
70555;BME280;58104;52.744;15.242;2023-04-06T06:58:58;101515.98;;;18.44;34.51
70555;BME280;58104;52.744;15.242;2023-04-06T07:01:24;101514.50;;;18.48;34.44
70555;BME280;58104;52.744;15.242;2023-04-06T07:03:49;101515.55;;;18.47;34.61
70555;BME280;58104;52.744;15.242;2023-04-06T07:06:15;101515.49;;;18.62;34.11
70555;BME280;58104;52.744;15.242;2023-04-06T07:08:40;101517.63;;;18.56;34.72
70555;BME280;58104;52.744;15.242;2023-04-06T07:11:06;101519.93;;;18.49;34.52
70555;BME280;58104;52.744;15.242;2023-04-06T07:13:31;101517.90;;;18.52;34.58
70555;BME280;58104;52.744;15.242;2023-04-06T07:15:57;101517.87;;;18.70;34.06
70555;BME280;58104;52.744;15.242;2023-04-06T07:18:22;101516.79;;;18.70;33.98
70555;BME280;58104;52.744;15.242;2023-04-06T07:20:47;101516.98;;;18.64;33.66
70555;BME280;58104;52.744;15.242;2023-04-06T07:23:13;101513.95;;;18.73;33.41
70555;BME280;58104;52.744;15.242;2023-04-06T07:25:38;101513.39;;;18.80;33.24
70555;BME280;58104;52.744;15.242;2023-04-06T07:28:04;101512.10;;;19.00;33.29
70555;BME280;58104;52.744;15.242;2023-04-06T07:30:29;101507.89;;;19.10;33.06
70555;BME280;58104;52.744;15.242;2023-04-06T07:32:54;101509.06;;;19.16;33.27
70555;BME280;58104;52.744;15.242;2023-04-06T07:35:19;101510.15;;;19.51;32.65
70555;BME280;58104;52.744;15.242;2023-04-06T07:37:44;101507.94;;;19.64;32.29
70555;BME280;58104;52.744;15.242;2023-04-06T07:40:10;101510.08;;;19.83;32.25
70555;BME280;58104;52.744;15.242;2023-04-06T07:42:35;101508.18;;;20.02;31.76
70555;BME280;58104;52.744;15.242;2023-04-06T07:45:01;101508.53;;;20.32;31.48
70555;BME280;58104;52.744;15.242;2023-04-06T07:47:26;101509.58;;;20.49;30.93
70555;BME280;58104;52.744;15.242;2023-04-06T07:49:55;101507.09;;;20.35;31.36
70555;BME280;58104;52.744;15.242;2023-04-06T07:52:17;101505.60;;;20.71;30.87
70555;BME280;58104;52.744;15.242;2023-04-06T07:54:43;101509.07;;;20.97;30.83
70555;BME280;58104;52.744;15.242;2023-04-06T07:57:08;101512.03;;;21.10;30.84
70555;BME280;58104;52.744;15.242;2023-04-06T07:59:33;101514.33;;;20.98;31.56
70555;BME280;58104;52.744;15.242;2023-04-06T08:01:59;101517.99;;;21.27;31.33
70555;BME280;58104;52.744;15.242;2023-04-06T08:04:24;101518.98;;;21.28;31.48
70555;BME280;58104;52.744;15.242;2023-04-06T08:06:49;101520.61;;;21.15;31.49
70555;BME280;58104;52.744;15.242;2023-04-06T08:09:14;101519.40;;;21.23;31.63
70555;BME280;58104;52.744;15.242;2023-04-06T08:11:40;101514.26;;;21.31;31.43
70555;BME280;58104;52.744;15.242;2023-04-06T08:14:05;101516.08;;;21.35;31.48
70555;BME280;58104;52.744;15.242;2023-04-06T08:16:31;101515.50;;;21.31;31.55
70555;BME280;58104;52.744;15.242;2023-04-06T08:18:56;101512.80;;;20.78;32.81
70555;BME280;58104;52.744;15.242;2023-04-06T08:21:22;101515.67;;;21.32;31.96
70555;BME280;58104;52.744;15.242;2023-04-06T08:23:47;101510.77;;;21.46;31.65
70555;BME280;58104;52.744;15.242;2023-04-06T08:26:12;101513.15;;;21.40;31.47
70555;BME280;58104;52.744;15.242;2023-04-06T08:28:38;101515.39;;;21.51;31.63
70555;BME280;58104;52.744;15.242;2023-04-06T08:31:04;101515.72;;;21.49;31.81
70555;BME280;58104;52.744;15.242;2023-04-06T08:33:29;101513.51;;;21.52;31.57
70555;BME280;58104;52.744;15.242;2023-04-06T08:35:54;101514.53;;;21.66;31.54
70555;BME280;58104;52.744;15.242;2023-04-06T08:38:20;101511.80;;;21.68;31.43
70555;BME280;58104;52.744;15.242;2023-04-06T08:40:45;101513.95;;;21.70;31.47
70555;BME280;58104;52.744;15.242;2023-04-06T08:43:14;101512.22;;;21.81;31.39
70555;BME280;58104;52.744;15.242;2023-04-06T08:45:35;101514.89;;;21.86;31.62
70555;BME280;58104;52.744;15.242;2023-04-06T08:48:01;101515.98;;;21.92;31.63
70555;BME280;58104;52.744;15.242;2023-04-06T08:50:26;101512.93;;;21.92;31.69
70555;BME280;58104;52.744;15.242;2023-04-06T08:52:51;101512.17;;;21.88;31.59
70555;BME280;58104;52.744;15.242;2023-04-06T08:55:17;101513.26;;;21.99;31.60
70555;BME280;58104;52.744;15.242;2023-04-06T08:57:42;101512.14;;;22.07;31.50
70555;BME280;58104;52.744;15.242;2023-04-06T09:00:10;101510.36;;;22.11;31.46
70555;BME280;58104;52.744;15.242;2023-04-06T09:02:33;101508.86;;;22.16;31.48
70555;BME280;58104;52.744;15.242;2023-04-06T09:04:59;101507.55;;;22.20;31.34
70555;BME280;58104;52.744;15.242;2023-04-06T09:07:23;101511.67;;;22.23;31.38
70555;BME280;58104;52.744;15.242;2023-04-06T09:09:49;101507.70;;;22.20;31.29
70555;BME280;58104;52.744;15.242;2023-04-06T09:12:23;101503.56;;;22.32;31.24
70555;BME280;58104;52.744;15.242;2023-04-06T09:14:40;101506.53;;;22.22;31.57
70555;BME280;58104;52.744;15.242;2023-04-06T09:17:05;101508.66;;;22.15;31.48
70555;BME280;58104;52.744;15.242;2023-04-06T09:19:31;101502.35;;;22.23;31.43
70555;BME280;58104;52.744;15.242;2023-04-06T09:22:02;101505.93;;;22.18;31.65
70555;BME280;58104;52.744;15.242;2023-04-06T09:24:21;101501.25;;;22.14;31.48
70555;BME280;58104;52.744;15.242;2023-04-06T09:26:47;101495.07;;;22.12;31.55
70555;BME280;58104;52.744;15.242;2023-04-06T09:31:37;101490.82;;;22.19;31.75
70555;BME280;58104;52.744;15.242;2023-04-06T09:34:03;101489.19;;;22.14;31.66
70555;BME280;58104;52.744;15.242;2023-04-06T09:36:30;101490.55;;;22.18;31.70
70555;BME280;58104;52.744;15.242;2023-04-06T09:38:55;101487.01;;;22.10;32.31
70555;BME280;58104;52.744;15.242;2023-04-06T09:41:23;101489.82;;;22.35;32.00
70555;BME280;58104;52.744;15.242;2023-04-06T09:43:44;101483.89;;;22.47;31.86
70555;BME280;58104;52.744;15.242;2023-04-06T09:46:09;101482.51;;;22.45;31.92
70555;BME280;58104;52.744;15.242;2023-04-06T09:48:35;101480.23;;;22.33;32.05
70555;BME280;58104;52.744;15.242;2023-04-06T09:51:04;101482.00;;;22.40;32.04
70555;BME280;58104;52.744;15.242;2023-04-06T09:53:26;101481.57;;;22.40;31.93
70555;BME280;58104;52.744;15.242;2023-04-06T09:55:51;101476.58;;;22.34;32.04
70555;BME280;58104;52.744;15.242;2023-04-06T09:58:16;101478.25;;;22.48;32.01
70555;BME280;58104;52.744;15.242;2023-04-06T10:00:47;101476.22;;;22.49;31.71
70555;BME280;58104;52.744;15.242;2023-04-06T10:03:14;101474.90;;;22.51;31.89
70555;BME280;58104;52.744;15.242;2023-04-06T10:05:35;101476.25;;;22.51;31.76
70555;BME280;58104;52.744;15.242;2023-04-06T10:08:00;101476.65;;;22.39;31.80
70555;BME280;58104;52.744;15.242;2023-04-06T10:10:23;101474.38;;;22.45;31.96
70555;BME280;58104;52.744;15.242;2023-04-06T10:12:48;101472.15;;;22.36;31.92
70555;BME280;58104;52.744;15.242;2023-04-06T10:15:14;101476.89;;;22.49;32.02
70555;BME280;58104;52.744;15.242;2023-04-06T10:17:39;101475.21;;;22.36;31.94
70555;BME280;58104;52.744;15.242;2023-04-06T10:20:09;101473.98;;;22.38;31.99
70555;BME280;58104;52.744;15.242;2023-04-06T10:22:35;101472.97;;;22.40;32.17
70555;BME280;58104;52.744;15.242;2023-04-06T10:24:55;101472.18;;;22.38;32.25
70555;BME280;58104;52.744;15.242;2023-04-06T10:27:29;101469.17;;;22.44;32.33
70555;BME280;58104;52.744;15.242;2023-04-06T10:29:47;101469.08;;;22.33;32.25
70555;BME280;58104;52.744;15.242;2023-04-06T10:32:11;101468.16;;;22.46;32.42
70555;BME280;58104;52.744;15.242;2023-04-06T10:34:37;101472.98;;;22.22;28.88
70555;BME280;58104;52.744;15.242;2023-04-06T10:37:10;101469.86;;;21.78;26.26
70555;BME280;58104;52.744;15.242;2023-04-06T10:39:27;101469.38;;;21.38;26.33
70555;BME280;58104;52.744;15.242;2023-04-06T10:41:53;101467.45;;;21.03;25.87
70555;BME280;58104;52.744;15.242;2023-04-06T10:44:21;101463.62;;;21.11;25.45
70555;BME280;58104;52.744;15.242;2023-04-06T10:46:52;101463.26;;;20.96;24.96
70555;BME280;58104;52.744;15.242;2023-04-06T10:49:10;101463.59;;;21.07;24.71
70555;BME280;58104;52.744;15.242;2023-04-06T10:51:38;101461.86;;;21.29;24.23
70555;BME280;58104;52.744;15.242;2023-04-06T10:54:01;101459.68;;;21.32;25.32
70555;BME280;58104;52.744;15.242;2023-04-06T10:56:26;101457.49;;;21.11;24.39
70555;BME280;58104;52.744;15.242;2023-04-06T10:58:53;101457.06;;;21.04;24.12
70555;BME280;58104;52.744;15.242;2023-04-06T11:01:17;101450.95;;;20.77;24.39
70555;BME280;58104;52.744;15.242;2023-04-06T11:03:43;101451.68;;;21.17;24.73
70555;BME280;58104;52.744;15.242;2023-04-06T11:06:07;101450.79;;;21.40;22.12
70555;BME280;58104;52.744;15.242;2023-04-06T11:08:33;101451.26;;;21.11;23.58
70555;BME280;58104;52.744;15.242;2023-04-06T11:11:04;101442.69;;;21.08;24.87
70555;BME280;58104;52.744;15.242;2023-04-06T11:13:23;101439.16;;;20.77;25.69
70555;BME280;58104;52.744;15.242;2023-04-06T11:15:48;101435.93;;;20.55;26.86
70555;BME280;58104;52.744;15.242;2023-04-06T11:18:17;101432.43;;;20.47;27.20
70555;BME280;58104;52.744;15.242;2023-04-06T11:20:39;101431.06;;;20.28;27.46
70555;BME280;58104;52.744;15.242;2023-04-06T11:23:04;101431.50;;;20.30;27.15
70555;BME280;58104;52.744;15.242;2023-04-06T11:25:29;101430.84;;;20.82;24.51
70555;BME280;58104;52.744;15.242;2023-04-06T11:27:54;101429.82;;;21.28;23.13
70555;BME280;58104;52.744;15.242;2023-04-06T11:30:20;101429.51;;;21.19;21.05
70555;BME280;58104;52.744;15.242;2023-04-06T11:32:46;101422.24;;;21.29;21.43
70555;BME280;58104;52.744;15.242;2023-04-06T11:35:13;101424.76;;;21.46;21.01
70555;BME280;58104;52.744;15.242;2023-04-06T11:37:37;101422.43;;;21.58;20.80
70555;BME280;58104;52.744;15.242;2023-04-06T11:40:03;101416.98;;;21.32;20.68
70555;BME280;58104;52.744;15.242;2023-04-06T11:42:29;101420.67;;;20.98;21.15
70555;BME280;58104;52.744;15.242;2023-04-06T11:44:54;101418.95;;;20.88;21.19
70555;BME280;58104;52.744;15.242;2023-04-06T11:47:19;101417.00;;;20.30;22.22
70555;BME280;58104;52.744;15.242;2023-04-06T11:49:44;101414.25;;;20.22;21.83
70555;BME280;58104;52.744;15.242;2023-04-06T11:52:14;101412.42;;;19.61;22.90
70555;BME280;58104;52.744;15.242;2023-04-06T11:54:36;101413.98;;;20.46;24.00
70555;BME280;58104;52.744;15.242;2023-04-06T11:57:00;101413.71;;;20.83;23.63
70555;BME280;58104;52.744;15.242;2023-04-06T11:59:26;101413.07;;;21.04;23.99
70555;BME280;58104;52.744;15.242;2023-04-06T12:01:50;101404.98;;;20.84;23.01
70555;BME280;58104;52.744;15.242;2023-04-06T12:04:15;101404.78;;;20.75;22.35
70555;BME280;58104;52.744;15.242;2023-04-06T12:06:41;101402.82;;;20.91;22.51
70555;BME280;58104;52.744;15.242;2023-04-06T12:09:06;101400.18;;;21.25;22.26
70555;BME280;58104;52.744;15.242;2023-04-06T12:11:32;101397.85;;;21.43;22.10
70555;BME280;58104;52.744;15.242;2023-04-06T12:13:57;101396.13;;;21.53;21.69
70555;BME280;58104;52.744;15.242;2023-04-06T12:16:22;101392.51;;;21.36;20.82
70555;BME280;58104;52.744;15.242;2023-04-06T12:18:47;101390.87;;;21.29;20.77
70555;BME280;58104;52.744;15.242;2023-04-06T12:21:12;101390.07;;;21.59;22.52
70555;BME280;58104;52.744;15.242;2023-04-06T12:23:38;101385.70;;;21.85;23.02
70555;BME280;58104;52.744;15.242;2023-04-06T12:26:03;101379.01;;;21.87;23.36
70555;BME280;58104;52.744;15.242;2023-04-06T12:28:29;101376.00;;;21.87;23.48
70555;BME280;58104;52.744;15.242;2023-04-06T12:30:55;101380.79;;;22.05;23.56
70555;BME280;58104;52.744;15.242;2023-04-06T12:33:20;101380.63;;;21.90;23.59